^^
Daily Summary for April 30, 2021 Units:  English    Metric   Both
Daily Weekly Monthly Yearly Custom
  High: Low: Average:
Temperature: 82.0 °F 57.0 °F 72.5 °F
Dew Point: 52.0 °F 38.0 °F 47.7 °F
Humidity: 75% 26% 44%
Wind Speed: 9mph 0mph 3.6mph
Wind Gust: 9mph - -
Wind- - SSE
Pressure: 30.2 in 30.2 in -
Precipitation: 0.000 in    
Historical Graphs
 
 
Tabular Data for April 30, 2021
Time Temperature Dew Point Pressure Wind Wind Speed Wind Gust Humidity Rainfall Rate (Hourly) solar
07:49 57.0 °F 47.0 °F 30.2 in Calm     70% 0.000 in 42.00 W/m2
07:54 57.0 °F 47.0 °F 30.2 in Calm     70% 0.000 in 46.00 W/m2
07:59 57.0 °F 47.0 °F 30.2 in Calm     70% 0.000 in 44.00 W/m2
08:04 57.0 °F 47.0 °F 30.2 in Calm     70% 0.000 in 192.00 W/m2
08:09 57.0 °F 48.0 °F 30.2 in Calm     71% 0.000 in 399.00 W/m2
08:14 58.0 °F 49.0 °F 30.2 in Calm     72% 0.000 in 415.00 W/m2
08:19 58.0 °F 49.0 °F 30.2 in NE 2 mph   73% 0.000 in 431.00 W/m2
08:24 58.0 °F 50.0 °F 30.2 in Calm   2 mph 74% 0.000 in 459.00 W/m2
08:29 59.0 °F 50.0 °F 30.2 in Calm     74% 0.000 in 485.00 W/m2
08:34 60.0 °F 51.0 °F 30.2 in NNW 4 mph 1 mph 75% 0.000 in 520.00 W/m2
08:39 60.0 °F 51.0 °F 30.2 in NNW 2 mph 3 mph 72% 0.000 in 536.00 W/m2
08:44 61.0 °F 51.0 °F 30.2 in WNW 2 mph 2 mph 69% 0.000 in 550.00 W/m2
08:49 63.0 °F 50.0 °F 30.2 in Calm   2 mph 66% 0.000 in 563.00 W/m2
08:54 64.0 °F 50.0 °F 30.2 in WNW 2 mph   64% 0.000 in 570.00 W/m2
08:59 65.0 °F 50.0 °F 30.2 in WNW 2 mph 2 mph 59% 0.000 in 589.00 W/m2
09:04 66.0 °F 48.0 °F 30.2 in WNW 2 mph 1 mph 53% 0.000 in 610.00 W/m2
09:09 67.0 °F 47.0 °F 30.2 in WNW 4 mph 2 mph 49% 0.000 in 619.00 W/m2
09:14 68.0 °F 47.0 °F 30.2 in WNW 4 mph 3 mph 48% 0.000 in 645.00 W/m2
09:19 70.0 °F 47.0 °F 30.2 in WNW 4 mph 3 mph 46% 0.000 in 682.00 W/m2
09:24 70.0 °F 38.0 °F 30.2 in Calm   2 mph 31% 0.000 in 691.00 W/m2
09:29 71.0 °F 42.0 °F 30.2 in WNW 2 mph 1 mph 35% 0.000 in 715.00 W/m2
09:34 72.0 °F 42.0 °F 30.2 in NNW 2 mph 2 mph 35% 0.000 in 766.00 W/m2
09:39 73.0 °F 41.0 °F 30.2 in NNW 2 mph 2 mph 32% 0.000 in 770.00 W/m2
09:44 74.0 °F 41.0 °F 30.2 in NNW 2 mph 2 mph 32% 0.000 in 729.00 W/m2
09:49 74.0 °F 44.0 °F 30.2 in NNW 2 mph   35% 0.000 in 687.00 W/m2
09:54 75.0 °F 46.0 °F 30.2 in NNW 2 mph 2 mph 36% 0.000 in 728.00 W/m2
09:59 76.0 °F 47.0 °F 30.2 in NNW 2 mph 2 mph 37% 0.000 in 394.00 W/m2
10:04 76.0 °F 49.0 °F 30.2 in NNW 2 mph 2 mph 39% 0.000 in 817.00 W/m2
10:09 76.0 °F 49.0 °F 30.2 in NNW 2 mph 2 mph 39% 0.000 in 387.00 W/m2
10:14 77.0 °F 50.0 °F 30.2 in North 2 mph 1 mph 39% 0.000 in 290.00 W/m2
10:19 77.0 °F 51.0 °F 30.2 in North 2 mph 2 mph 40% 0.000 in 631.00 W/m2
10:24 77.0 °F 51.0 °F 30.2 in North 2 mph 2 mph 41% 0.000 in 621.00 W/m2
10:29 77.0 °F 52.0 °F 30.2 in NNE 2 mph 2 mph 42% 0.000 in 830.00 W/m2
10:34 77.0 °F 52.0 °F 30.2 in North 4 mph 2 mph 42% 0.000 in 830.00 W/m2
10:39 77.0 °F 51.0 °F 30.2 in NNE 4 mph 3 mph 40% 0.000 in 519.00 W/m2
10:44 77.0 °F 50.0 °F 30.2 in NE 7 mph 2 mph 39% 0.000 in 638.00 W/m2
10:49 77.0 °F 49.0 °F 30.2 in NNE 7 mph 7 mph 37% 0.000 in 638.00 W/m2
10:54 77.0 °F 50.0 °F 30.2 in ENE 7 mph 7 mph 38% 0.000 in 483.00 W/m2
10:59 77.0 °F 50.0 °F 30.2 in NE 4 mph 6 mph 39% 0.000 in 496.00 W/m2
11:04 77.0 °F 49.0 °F 30.2 in NNE 6 mph 3 mph 38% 0.000 in 496.00 W/m2
11:09 77.0 °F 50.0 °F 30.2 in NNE 7 mph 6 mph 39% 0.000 in 918.00 W/m2
11:14 77.0 °F 50.0 °F 30.2 in ENE 6 mph 7 mph 39% 0.000 in 949.00 W/m2
11:19 77.0 °F 50.0 °F 30.2 in NE 2 mph 6 mph 39% 0.000 in 947.00 W/m2
11:24 77.0 °F 50.0 °F 30.2 in NE 7 mph 3 mph 39% 0.000 in 870.00 W/m2
11:29 77.0 °F 49.0 °F 30.2 in East 4 mph 7 mph 37% 0.000 in 933.00 W/m2
11:39 78.0 °F 48.0 °F 30.2 in ENE 7 mph 7 mph 36% 0.000 in 962.00 W/m2
11:44 78.0 °F 49.0 °F 30.2 in ENE 4 mph 6 mph 36% 0.000 in 937.00 W/m2
11:49 78.0 °F 47.0 °F 30.2 in ESE 7 mph 3 mph 34% 0.000 in 919.00 W/m2
11:53 78.0 °F 48.0 °F 30.2 in ESE 7 mph 7 mph 34% 0.000 in 1000.00 W/m2
11:59 79.0 °F 49.0 °F 30.2 in West 7 mph 6 mph 35% 0.000 in 995.00 W/m2
12:04 79.0 °F 47.0 °F 30.2 in NE 4 mph 1 mph 32% 0.000 in 963.00 W/m2
12:09 80.0 °F 46.0 °F 30.2 in NNE 6 mph 3 mph 31% 0.000 in 1007.00 W/m2
12:14 80.0 °F 45.0 °F 30.2 in NNE 6 mph 6 mph 29% 0.000 in 988.00 W/m2
12:19 80.0 °F 47.0 °F 30.2 in NNE 4 mph 6 mph 31% 0.000 in 1007.00 W/m2
12:24 81.0 °F 46.0 °F 30.2 in NE 6 mph 6 mph 30% 0.000 in 937.00 W/m2
12:29 81.0 °F 47.0 °F 30.2 in NNE 4 mph 3 mph 30% 0.000 in 993.00 W/m2
12:34 81.0 °F 46.0 °F 30.2 in NE 9 mph 6 mph 29% 0.000 in 963.00 W/m2
12:39 82.0 °F 44.0 °F 30.2 in NE 6 mph 9 mph 27% 0.000 in 933.00 W/m2
12:44 82.0 °F 44.0 °F 30.2 in NE 7 mph 6 mph 27% 0.000 in 986.00 W/m2
12:49 82.0 °F 44.0 °F 30.2 in NNE 9 mph 7 mph 27% 0.000 in 984.00 W/m2
12:54 82.0 °F 45.0 °F 30.2 in NNE 9 mph 9 mph 27% 0.000 in 940.00 W/m2
12:58 82.0 °F 44.0 °F 30.2 in ESE 4 mph 9 mph 26% 0.000 in 958.00 W/m2
El Dorado Weather
Compliments of Weather Underground - 2 mb